createdAt,value
2023-05-08T00:00:45.833Z,18.00
2023-05-08T00:03:14.271Z,18.00
2023-05-08T00:05:44.136Z,18.00
2023-05-08T00:08:12.456Z,18.00
2023-05-08T00:10:40.732Z,18.00
2023-05-08T00:13:09.099Z,18.00
2023-05-08T00:15:37.633Z,18.00
2023-05-08T00:18:06.063Z,18.00
2023-05-08T00:20:35.010Z,18.00
2023-05-08T00:23:04.728Z,17.90
2023-05-08T00:25:33.003Z,17.90
2023-05-08T00:28:01.653Z,17.90
2023-05-08T00:30:29.953Z,17.90
2023-05-08T00:32:59.126Z,17.80
2023-05-08T00:35:27.481Z,17.90
2023-05-08T00:37:55.795Z,17.80
2023-05-08T00:40:26.220Z,17.80
2023-05-08T00:42:55.978Z,17.80
2023-05-08T00:45:24.449Z,17.80
2023-05-08T00:47:52.945Z,17.80
2023-05-08T00:50:21.531Z,17.80
2023-05-08T00:52:51.582Z,17.80
2023-05-08T00:55:20.945Z,17.70
2023-05-08T00:57:50.786Z,17.70
2023-05-08T01:00:21.595Z,17.80
2023-05-08T01:02:50.381Z,17.80
2023-05-08T01:05:18.870Z,17.70
2023-05-08T01:07:47.674Z,17.70
2023-05-08T01:10:16.471Z,17.70
2023-05-08T01:13:09.190Z,17.60
2023-05-08T01:15:44.721Z,17.70
2023-05-08T01:18:20.376Z,17.60
2023-05-08T01:20:57.233Z,17.60
2023-05-08T01:24:15.653Z,17.50
2023-05-08T01:27:10.715Z,17.50
2023-05-08T01:30:16.686Z,17.40
2023-05-08T01:32:56.527Z,17.40
2023-05-08T01:35:30.811Z,17.40
2023-05-08T01:38:07.577Z,17.40
2023-05-08T01:40:54.079Z,17.30
2023-05-08T01:43:29.523Z,17.30
2023-05-08T01:46:00.472Z,17.20
2023-05-08T01:48:34.329Z,17.20
2023-05-08T01:51:07.517Z,17.20
2023-05-08T01:53:39.954Z,17.10
2023-05-08T01:56:12.304Z,17.10
2023-05-08T01:58:42.476Z,17.00
2023-05-08T02:01:14.113Z,17.10
2023-05-08T02:03:45.543Z,17.00
2023-05-08T02:06:17.434Z,17.00
2023-05-08T02:08:48.210Z,17.00
2023-05-08T02:11:18.318Z,17.00
2023-05-08T02:13:49.575Z,17.00
2023-05-08T02:16:19.324Z,17.00
2023-05-08T02:18:52.974Z,16.90
2023-05-08T02:21:22.123Z,16.90
2023-05-08T02:23:51.677Z,16.90
2023-05-08T02:26:21.798Z,16.80
2023-05-08T02:28:51.712Z,16.80
2023-05-08T02:31:20.527Z,16.80
2023-05-08T02:33:51.790Z,16.80
2023-05-08T02:36:20.745Z,16.80
2023-05-08T02:38:53.769Z,16.80
2023-05-08T02:41:24.194Z,16.80
2023-05-08T02:43:53.065Z,16.80
2023-05-08T02:46:26.928Z,16.80
2023-05-08T02:49:02.915Z,16.70
2023-05-08T02:51:47.508Z,16.70
2023-05-08T02:54:22.903Z,16.80
2023-05-08T02:56:58.004Z,16.80
2023-05-08T02:59:32.494Z,16.90
2023-05-08T03:02:16.750Z,16.90
2023-05-08T03:04:51.960Z,16.90
2023-05-08T03:07:22.719Z,16.90
2023-05-08T03:09:56.442Z,16.90
2023-05-08T03:12:29.065Z,16.90
2023-05-08T03:15:04.043Z,16.90
2023-05-08T03:17:35.240Z,16.90
2023-05-08T03:20:08.630Z,17.00
2023-05-08T03:22:39.824Z,17.00
2023-05-08T03:25:11.684Z,17.00
2023-05-08T03:27:42.209Z,17.10
2023-05-08T03:30:12.786Z,17.00
2023-05-08T03:32:46.269Z,17.00
2023-05-08T03:35:17.699Z,17.00
2023-05-08T03:37:46.259Z,17.00
2023-05-08T03:40:15.033Z,17.00
2023-05-08T03:42:44.501Z,17.00
2023-05-08T03:45:15.050Z,16.90
2023-05-08T03:47:44.625Z,16.90
2023-05-08T03:50:13.376Z,16.90
2023-05-08T03:52:44.286Z,16.90
2023-05-08T03:55:12.656Z,16.90
2023-05-08T03:57:47.639Z,16.90
2023-05-08T04:00:27.120Z,16.90
2023-05-08T04:03:06.489Z,17.00
2023-05-08T04:05:39.157Z,17.00
2023-05-08T04:08:20.656Z,17.00
2023-05-08T04:10:51.981Z,17.00
2023-05-08T04:13:23.967Z,17.00
2023-05-08T04:15:56.390Z,17.10
2023-05-08T04:18:30.165Z,17.10
2023-05-08T04:21:03.711Z,17.10
2023-05-08T04:23:36.224Z,17.10
2023-05-08T04:26:06.609Z,17.10
2023-05-08T04:28:35.567Z,17.10
2023-05-08T04:31:06.008Z,17.20
2023-05-08T04:33:35.805Z,17.20
2023-05-08T04:36:06.032Z,17.30
2023-05-08T04:38:39.015Z,17.30
2023-05-08T04:41:08.127Z,17.20
2023-05-08T04:43:37.310Z,17.30
2023-05-08T04:46:07.424Z,17.30
2023-05-08T04:48:35.774Z,17.30
2023-05-08T04:51:04.111Z,17.40
2023-05-08T04:53:32.597Z,17.40
2023-05-08T04:56:02.294Z,17.40
2023-05-08T04:58:30.929Z,17.40
2023-05-08T05:01:03.412Z,17.40
2023-05-08T05:03:32.844Z,17.40
2023-05-08T05:06:02.540Z,17.40
2023-05-08T05:08:31.008Z,17.50
2023-05-08T05:11:01.761Z,17.60
2023-05-08T05:13:30.548Z,17.60
2023-05-08T05:16:00.585Z,17.70
2023-05-08T05:18:29.172Z,17.80
2023-05-08T05:20:59.635Z,17.90
2023-05-08T05:23:30.601Z,18.00
2023-05-08T05:25:59.600Z,18.00
2023-05-08T05:28:29.847Z,18.10
2023-05-08T05:30:59.177Z,18.10
2023-05-08T05:33:28.227Z,18.10
2023-05-08T05:35:57.208Z,18.20
2023-05-08T05:38:25.671Z,18.10
2023-05-08T05:40:54.442Z,18.10
2023-05-08T05:43:22.977Z,18.20
2023-05-08T05:45:52.929Z,18.30
2023-05-08T05:48:21.429Z,18.30
2023-05-08T05:50:50.347Z,18.30
2023-05-08T05:53:18.654Z,18.40
2023-05-08T05:55:47.030Z,18.40
2023-05-08T05:58:15.916Z,18.40
2023-05-08T06:00:45.298Z,18.40
2023-05-08T06:03:15.170Z,18.50
2023-05-08T06:05:44.461Z,18.60
2023-05-08T06:08:12.815Z,19.00
2023-05-08T06:10:41.555Z,19.50
2023-05-08T06:13:11.275Z,21.00
2023-05-08T06:15:39.715Z,22.10
2023-05-08T06:18:08.078Z,22.30
2023-05-08T06:20:38.449Z,22.30
2023-05-08T06:23:07.802Z,22.40
2023-05-08T06:25:36.273Z,22.80
2023-05-08T06:28:06.713Z,23.10
2023-05-08T06:30:35.173Z,23.50
2023-05-08T06:33:03.566Z,24.30
2023-05-08T06:35:32.001Z,25.60
2023-05-08T06:38:02.074Z,26.60
2023-05-08T06:40:30.748Z,27.70
2023-05-08T06:42:59.087Z,28.50
2023-05-08T06:45:27.488Z,28.50
2023-05-08T06:47:55.891Z,28.70
2023-05-08T06:50:24.488Z,29.90
2023-05-08T06:52:52.848Z,29.70
2023-05-08T06:55:22.886Z,29.90
2023-05-08T06:57:51.296Z,30.50
2023-05-08T07:00:19.895Z,31.20
2023-05-08T07:02:48.298Z,31.70
2023-05-08T07:05:18.060Z,32.00
2023-05-08T07:07:47.506Z,32.20
2023-05-08T07:10:16.896Z,32.50
2023-05-08T07:12:46.593Z,32.70
2023-05-08T07:15:25.437Z,32.50
2023-05-08T07:17:54.809Z,32.80
2023-05-08T07:20:24.432Z,33.40
2023-05-08T07:22:53.273Z,33.50
2023-05-08T07:25:21.636Z,33.50
2023-05-08T07:27:51.420Z,33.60
2023-05-08T07:30:19.842Z,33.20
2023-05-08T07:32:48.276Z,33.30
2023-05-08T07:35:17.032Z,32.80
2023-05-08T07:37:45.831Z,32.40
2023-05-08T07:40:14.356Z,32.90
2023-05-08T07:42:43.808Z,33.20
2023-05-08T07:45:14.753Z,33.70
2023-05-08T07:47:50.872Z,33.60
2023-05-08T07:50:20.668Z,31.60
2023-05-08T07:52:50.491Z,30.20
2023-05-08T07:55:20.487Z,29.90
2023-05-08T07:57:48.820Z,29.30
2023-05-08T08:00:19.256Z,29.10
2023-05-08T08:02:47.888Z,28.70
2023-05-08T08:05:16.660Z,28.70
2023-05-08T08:07:45.051Z,28.70
2023-05-08T08:10:13.576Z,29.00
2023-05-08T08:12:41.954Z,29.10
2023-05-08T08:15:11.356Z,28.60
2023-05-08T08:17:41.404Z,27.60
2023-05-08T08:20:10.758Z,26.50
2023-05-08T08:22:39.200Z,25.80
2023-05-08T08:25:08.396Z,25.00
2023-05-08T08:27:36.861Z,25.10
2023-05-08T08:30:15.846Z,25.20
2023-05-08T08:32:47.420Z,24.60
2023-05-08T08:35:16.809Z,24.50
2023-05-08T08:37:45.774Z,25.10
2023-05-08T08:40:14.587Z,25.00
2023-05-08T08:42:43.018Z,24.80
2023-05-08T08:45:12.591Z,24.80
2023-05-08T08:47:43.973Z,24.80
2023-05-08T08:50:15.964Z,24.60
2023-05-08T08:52:54.497Z,24.10
2023-05-08T08:55:24.413Z,24.40
2023-05-08T08:58:00.426Z,24.20
2023-05-08T09:00:32.054Z,24.40
2023-05-08T09:03:00.627Z,24.80
2023-05-08T09:05:31.608Z,24.30
2023-05-08T09:08:00.560Z,24.30
2023-05-08T09:10:29.087Z,24.00
2023-05-08T09:12:57.701Z,24.00
2023-05-08T09:15:26.126Z,24.90
2023-05-08T09:17:54.617Z,24.50
2023-05-08T09:20:23.757Z,24.50
2023-05-08T09:22:55.331Z,24.60
2023-05-08T09:25:24.654Z,24.70
2023-05-08T09:27:52.974Z,24.40
2023-05-08T09:30:21.375Z,24.50
2023-05-08T09:32:50.057Z,24.60
2023-05-08T09:35:18.393Z,24.20
2023-05-08T09:37:47.609Z,24.50
2023-05-08T09:40:22.025Z,24.80
2023-05-08T09:42:51.672Z,25.50
2023-05-08T09:45:31.176Z,25.10
2023-05-08T09:48:00.006Z,24.80
2023-05-08T09:50:28.466Z,24.60
2023-05-08T09:52:56.958Z,24.90
2023-05-08T09:55:26.652Z,24.80
2023-05-08T09:57:57.228Z,24.30
2023-05-08T10:00:27.123Z,24.60
2023-05-08T10:02:57.834Z,24.50
2023-05-08T10:05:29.979Z,24.00
2023-05-08T10:08:00.417Z,24.60
2023-05-08T10:10:31.633Z,24.80
2023-05-08T10:13:00.289Z,24.70
2023-05-08T10:15:31.770Z,24.70
2023-05-08T10:18:05.554Z,24.80
2023-05-08T10:20:35.113Z,24.80
2023-05-08T10:23:05.591Z,24.20
2023-05-08T10:25:37.394Z,24.20
2023-05-08T10:28:12.245Z,24.10
2023-05-08T10:30:45.157Z,24.30
2023-05-08T10:33:18.084Z,24.70
2023-05-08T10:35:46.850Z,24.80
2023-05-08T10:38:17.665Z,24.60
2023-05-08T10:40:50.627Z,24.30
2023-05-08T10:43:19.531Z,24.20
2023-05-08T10:45:48.479Z,23.70
2023-05-08T10:48:26.819Z,24.00
2023-05-08T10:51:02.290Z,24.50
2023-05-08T10:53:37.752Z,24.80
2023-05-08T10:56:07.771Z,24.30
2023-05-08T10:58:39.309Z,24.30
2023-05-08T11:01:15.355Z,24.30
2023-05-08T11:03:50.642Z,24.30
2023-05-08T11:06:39.893Z,24.20
2023-05-08T11:09:09.598Z,24.40
2023-05-08T11:11:40.138Z,24.70
2023-05-08T11:14:14.774Z,25.10
2023-05-08T11:17:05.824Z,25.50
2023-05-08T11:19:34.503Z,25.10
2023-05-08T11:22:27.102Z,24.60
2023-05-08T11:24:59.114Z,24.30
2023-05-08T11:28:06.102Z,24.50
2023-05-08T11:30:41.544Z,24.90
2023-05-08T11:33:19.203Z,25.20
2023-05-08T11:35:56.004Z,24.60
2023-05-08T11:38:32.569Z,24.00
2023-05-08T11:41:07.629Z,23.90
2023-05-08T11:44:15.331Z,24.50
2023-05-08T11:46:47.735Z,25.10
2023-05-08T11:49:18.891Z,25.30
2023-05-08T11:51:54.951Z,25.30
2023-05-08T11:54:23.976Z,25.10
2023-05-08T11:56:55.055Z,24.80
2023-05-08T11:59:23.477Z,24.80
2023-05-08T12:04:23.834Z,24.40
2023-05-08T12:06:59.076Z,24.00
2023-05-08T12:09:27.652Z,24.20
2023-05-08T12:11:59.531Z,24.60
2023-05-08T12:14:27.915Z,24.80
2023-05-08T12:16:56.532Z,24.50
2023-05-08T12:19:24.879Z,24.70
2023-05-08T12:21:53.160Z,24.70
2023-05-08T12:24:24.410Z,24.30
2023-05-08T12:26:56.525Z,23.80
2023-05-08T12:29:26.472Z,23.50
2023-05-08T12:31:54.980Z,23.30
2023-05-08T12:34:23.513Z,23.80
2023-05-08T12:37:03.347Z,24.30
2023-05-08T12:39:37.535Z,24.70
2023-05-08T12:42:06.230Z,24.80
2023-05-08T12:44:35.959Z,24.30
2023-05-08T12:47:07.298Z,23.90
2023-05-08T12:49:35.847Z,24.00
2023-05-08T12:52:06.698Z,23.90
2023-05-08T12:54:36.808Z,23.90
2023-05-08T12:57:11.826Z,24.10
2023-05-08T12:59:42.112Z,24.00
2023-05-08T13:02:15.866Z,24.10
2023-05-08T13:04:44.553Z,24.10
2023-05-08T13:07:13.094Z,24.00
2023-05-08T13:09:41.772Z,23.70
2023-05-08T13:12:28.640Z,23.50
2023-05-08T13:14:58.429Z,23.50
2023-05-08T13:17:27.116Z,23.40
2023-05-08T13:19:55.493Z,23.30
2023-05-08T13:22:26.776Z,23.40
2023-05-08T13:24:55.372Z,23.30
2023-05-08T13:27:23.768Z,23.50
2023-05-08T13:29:52.126Z,23.80
2023-05-08T13:32:22.033Z,24.10
2023-05-08T13:34:52.310Z,24.10
2023-05-08T13:37:23.526Z,24.00
2023-05-08T13:39:51.823Z,23.70
2023-05-08T13:42:20.148Z,23.90
2023-05-08T13:44:48.528Z,23.90
2023-05-08T13:47:16.891Z,24.00
2023-05-08T13:49:47.385Z,23.90
2023-05-08T13:52:15.748Z,23.80
2023-05-08T13:54:44.226Z,23.70
2023-05-08T13:57:12.760Z,23.70
2023-05-08T13:59:41.199Z,23.70
2023-05-08T14:02:09.788Z,23.90
2023-05-08T14:04:38.235Z,23.60
2023-05-08T14:07:08.236Z,23.40
2023-05-08T14:09:36.757Z,23.20
2023-05-08T14:12:05.405Z,23.10
2023-05-08T14:14:34.490Z,23.20
2023-05-08T14:17:03.340Z,23.10
2023-05-08T14:19:31.934Z,23.20
2023-05-08T14:22:00.720Z,23.20
2023-05-08T14:24:30.715Z,23.40
2023-05-08T14:26:59.702Z,23.40
2023-05-08T14:29:28.049Z,23.30
2023-05-08T14:31:56.417Z,23.40
2023-05-08T14:34:24.797Z,23.50
2023-05-08T14:36:53.132Z,23.20
2023-05-08T14:39:21.653Z,23.10
2023-05-08T14:42:14.121Z,23.10
2023-05-08T14:44:39.834Z,23.00
2023-05-08T14:47:08.254Z,22.90
2023-05-08T14:52:24.914Z,22.80
2023-05-08T14:54:54.008Z,22.80
2023-05-08T14:57:24.094Z,22.80
2023-05-08T14:59:55.330Z,22.90
2023-05-08T15:02:24.413Z,23.10
2023-05-08T15:04:53.067Z,23.20
2023-05-08T15:07:21.610Z,23.40
2023-05-08T15:09:50.059Z,23.30
2023-05-08T15:12:18.547Z,23.50
2023-05-08T15:14:48.896Z,23.60
2023-05-08T15:17:17.666Z,23.40
2023-05-08T15:19:46.664Z,23.60
2023-05-08T15:22:15.599Z,23.70
2023-05-08T15:24:43.985Z,23.60
2023-05-08T15:27:12.564Z,23.50
2023-05-08T15:29:42.262Z,23.30
2023-05-08T15:32:12.015Z,23.00
2023-05-08T15:34:40.866Z,22.80
2023-05-08T15:37:09.554Z,22.70
2023-05-08T15:39:38.017Z,22.70
2023-05-08T15:42:06.777Z,22.90
2023-05-08T15:44:53.284Z,23.20
2023-05-08T15:47:24.733Z,23.40
2023-05-08T15:49:53.121Z,23.50
2023-05-08T15:52:22.747Z,23.40
2023-05-08T15:54:51.659Z,23.30
2023-05-08T15:57:20.038Z,23.10
2023-05-08T15:59:48.405Z,23.00
2023-05-08T16:02:16.952Z,22.90
2023-05-08T16:04:46.764Z,22.80
2023-05-08T16:07:15.177Z,22.80
2023-05-08T16:09:43.610Z,22.80
2023-05-08T16:12:12.092Z,22.70
2023-05-08T16:14:40.404Z,22.60
2023-05-08T16:17:09.032Z,22.60
2023-05-08T16:19:40.922Z,22.60
2023-05-08T16:22:10.612Z,22.60
2023-05-08T16:24:38.915Z,22.50
2023-05-08T16:27:07.282Z,22.50
2023-05-08T16:29:35.590Z,22.40
2023-05-08T16:32:03.941Z,22.30
2023-05-08T16:34:32.358Z,22.20
2023-05-08T16:37:00.653Z,22.10
2023-05-08T16:39:30.533Z,22.10
2023-05-08T16:41:58.882Z,22.10
2023-05-08T16:44:27.189Z,22.10
2023-05-08T16:46:55.562Z,22.10
2023-05-08T16:49:23.891Z,22.10
2023-05-08T16:51:52.243Z,22.10
2023-05-08T16:54:20.613Z,22.10
2023-05-08T16:56:50.427Z,22.30
2023-05-08T16:59:18.707Z,22.30
2023-05-08T17:01:47.016Z,22.30
2023-05-08T17:04:15.427Z,22.30
2023-05-08T17:06:43.755Z,22.30
2023-05-08T17:09:12.049Z,22.30
2023-05-08T17:11:40.456Z,22.30
2023-05-08T17:14:10.136Z,22.30
2023-05-08T17:16:38.673Z,22.40
2023-05-08T17:19:07.103Z,22.40
2023-05-08T17:21:35.510Z,22.40
2023-05-08T17:24:03.859Z,22.40
2023-05-08T17:26:33.490Z,22.40
2023-05-08T17:29:02.261Z,22.30
2023-05-08T17:31:32.082Z,22.30
2023-05-08T17:34:00.503Z,22.30
2023-05-08T17:36:28.957Z,22.30
2023-05-08T17:38:57.403Z,22.10
2023-05-08T17:41:25.730Z,22.00
2023-05-08T17:43:54.398Z,22.00
2023-05-08T17:46:22.958Z,21.90
2023-05-08T17:48:52.858Z,21.80
2023-05-08T17:51:21.172Z,21.70
2023-05-08T17:53:49.530Z,21.70
2023-05-08T17:56:20.509Z,21.70
2023-05-08T17:58:48.916Z,21.60
2023-05-08T18:01:17.293Z,21.60
2023-05-08T18:03:46.077Z,21.50
2023-05-08T18:06:17.911Z,21.50
2023-05-08T18:08:47.404Z,21.40
2023-05-08T18:11:20.083Z,21.40
2023-05-08T18:13:48.549Z,21.30
2023-05-08T18:16:18.970Z,21.20
2023-05-08T18:18:47.558Z,21.20
2023-05-08T18:21:17.257Z,21.10
2023-05-08T18:23:45.587Z,21.10
2023-05-08T18:26:17.386Z,20.90
2023-05-08T18:28:45.774Z,20.90
2023-05-08T18:31:16.440Z,20.90
2023-05-08T18:33:44.854Z,20.80
2023-05-08T18:36:13.128Z,20.70
2023-05-08T18:38:42.974Z,20.70
2023-05-08T18:41:11.423Z,20.60
2023-05-08T18:43:39.753Z,20.50
2023-05-08T18:46:12.396Z,20.40
2023-05-08T18:48:41.398Z,20.40
2023-05-08T18:51:09.797Z,20.30
2023-05-08T18:53:38.935Z,20.30
2023-05-08T18:56:08.646Z,20.20
2023-05-08T18:58:36.971Z,20.10
2023-05-08T19:01:06.106Z,20.10
2023-05-08T19:03:34.567Z,20.10
2023-05-08T19:06:02.890Z,20.00
2023-05-08T19:08:56.332Z,20.00
2023-05-08T19:11:26.114Z,19.90
2023-05-08T19:13:55.839Z,19.90
2023-05-08T19:16:24.318Z,19.90
2023-05-08T19:18:52.730Z,19.80
2023-05-08T19:21:21.092Z,19.80
2023-05-08T19:23:49.430Z,19.80
2023-05-08T19:26:18.187Z,19.80
2023-05-08T19:28:47.785Z,19.70
2023-05-08T19:31:16.144Z,19.80
2023-05-08T19:33:44.518Z,19.80
2023-05-08T19:36:12.762Z,19.70
2023-05-08T19:38:41.138Z,19.70
2023-05-08T19:41:09.411Z,19.70
2023-05-08T19:43:37.680Z,19.70
2023-05-08T19:46:07.422Z,19.70
2023-05-08T19:48:35.873Z,19.70
2023-05-08T19:51:14.437Z,19.70
2023-05-08T19:53:44.601Z,19.70
2023-05-08T19:56:13.456Z,19.70
2023-05-08T19:58:41.868Z,19.70
2023-05-08T20:01:11.656Z,19.60
2023-05-08T20:03:40.129Z,19.60
2023-05-08T20:06:12.586Z,19.50
2023-05-08T20:08:41.163Z,19.50
2023-05-08T20:11:13.120Z,19.50
2023-05-08T20:13:41.771Z,19.40
2023-05-08T20:16:11.696Z,19.40
2023-05-08T20:18:41.017Z,19.40
2023-05-08T20:21:09.577Z,19.40
2023-05-08T20:23:39.747Z,19.40
2023-05-08T20:26:09.804Z,19.30
2023-05-08T20:28:38.846Z,19.30
2023-05-08T20:31:08.594Z,19.20
2023-05-08T20:33:38.762Z,19.20
2023-05-08T20:36:07.370Z,19.10
2023-05-08T20:38:36.811Z,19.10
2023-05-08T20:41:05.413Z,19.00
2023-05-08T20:43:33.915Z,19.00
2023-05-08T20:46:02.551Z,19.00
2023-05-08T20:48:31.144Z,19.00
2023-05-08T20:51:00.961Z,19.00
2023-05-08T20:53:29.400Z,19.00
2023-05-08T20:56:01.697Z,19.00
2023-05-08T20:58:30.065Z,19.00
2023-05-08T21:00:58.488Z,19.10
2023-05-08T21:03:27.057Z,19.10
2023-05-08T21:05:56.027Z,19.10
2023-05-08T21:08:26.433Z,19.20
2023-05-08T21:11:01.795Z,19.20
2023-05-08T21:13:30.225Z,19.20
2023-05-08T21:15:58.525Z,19.10
2023-05-08T21:18:26.914Z,19.10
2023-05-08T21:20:55.285Z,19.10
2023-05-08T21:23:25.104Z,19.10
2023-05-08T21:25:53.540Z,19.10
2023-05-08T21:28:21.941Z,19.00
2023-05-08T21:30:50.245Z,19.10
2023-05-08T21:33:19.489Z,19.00
2023-05-08T21:35:48.484Z,19.00
2023-05-08T21:38:16.932Z,18.90
2023-05-08T21:40:46.839Z,18.80
2023-05-08T21:43:15.989Z,18.80
2023-05-08T21:45:44.366Z,18.70
2023-05-08T21:48:12.699Z,18.70
2023-05-08T21:50:41.053Z,18.60
2023-05-08T21:53:09.396Z,18.50
2023-05-08T21:55:37.676Z,18.50
2023-05-08T21:58:07.726Z,18.50
2023-05-08T22:00:36.150Z,18.50
2023-05-08T22:03:04.673Z,18.40
2023-05-08T22:05:33.032Z,18.40
2023-05-08T22:08:01.380Z,18.40
2023-05-08T22:10:29.834Z,18.40
2023-05-08T22:12:58.179Z,18.30
2023-05-08T22:15:30.741Z,18.20
2023-05-08T22:17:59.662Z,18.20
2023-05-08T22:20:28.182Z,18.20
2023-05-08T22:22:56.555Z,18.20
2023-05-08T22:25:25.641Z,18.20
2023-05-08T22:27:54.014Z,18.20
2023-05-08T22:30:22.595Z,18.20
2023-05-08T22:32:56.307Z,18.20
2023-05-08T22:35:26.924Z,18.30
2023-05-08T22:37:57.275Z,18.30
2023-05-08T22:40:26.352Z,18.30
2023-05-08T22:42:55.933Z,18.30
2023-05-08T22:45:24.670Z,18.30
2023-05-08T22:47:54.618Z,18.30
2023-05-08T22:50:23.109Z,18.20
2023-05-08T22:52:51.453Z,18.10
2023-05-08T22:55:19.766Z,18.10
2023-05-08T22:57:48.033Z,18.10
2023-05-08T23:00:17.365Z,18.00
2023-05-08T23:02:45.864Z,17.90
2023-05-08T23:05:15.728Z,17.90
2023-05-08T23:07:44.273Z,17.90
2023-05-08T23:10:14.179Z,17.80
2023-05-08T23:12:42.560Z,17.80
2023-05-08T23:15:12.154Z,17.70
2023-05-08T23:17:40.749Z,17.70
2023-05-08T23:20:10.328Z,17.70
2023-05-08T23:22:39.987Z,17.70
2023-05-08T23:25:10.977Z,17.70
2023-05-08T23:27:39.346Z,17.60
2023-05-08T23:30:08.787Z,17.50
2023-05-08T23:32:37.109Z,17.40
2023-05-08T23:35:05.909Z,17.40
2023-05-08T23:37:34.249Z,17.30
2023-05-08T23:40:04.003Z,17.30
2023-05-08T23:42:32.311Z,17.20
2023-05-08T23:45:00.580Z,17.20
2023-05-08T23:47:28.876Z,17.20
2023-05-08T23:49:57.154Z,17.20
2023-05-08T23:52:25.488Z,17.20
2023-05-08T23:54:53.809Z,17.20
2023-05-08T23:57:24.349Z,17.10
2023-05-08T23:59:52.606Z,17.10
